createdAt,value
2023-02-21T00:00:08.302Z,2.97
2023-02-21T00:02:53.377Z,3.13
2023-02-21T00:05:38.886Z,2.73
2023-02-21T00:08:24.598Z,2.70
2023-02-21T00:11:11.953Z,3.13
2023-02-21T00:13:58.015Z,2.50
2023-02-21T00:16:43.497Z,2.83
2023-02-21T00:19:29.107Z,2.77
2023-02-21T00:22:14.600Z,2.53
2023-02-21T00:24:59.957Z,2.90
2023-02-21T00:27:48.968Z,3.20
2023-02-21T00:30:34.817Z,2.87
2023-02-21T00:33:20.648Z,2.63
2023-02-21T00:36:05.844Z,2.60
2023-02-21T00:38:51.110Z,1.97
2023-02-21T00:41:36.461Z,2.03
2023-02-21T00:44:23.367Z,2.57
2023-02-21T00:47:08.772Z,2.03
2023-02-21T00:49:54.267Z,1.90
2023-02-21T00:52:39.420Z,1.83
2023-02-21T00:55:25.335Z,2.10
2023-02-21T00:58:10.725Z,1.77
2023-02-21T01:00:57.704Z,1.83
2023-02-21T01:03:42.689Z,1.40
2023-02-21T01:06:28.581Z,1.67
2023-02-21T01:09:14.025Z,1.37
2023-02-21T01:11:59.454Z,1.07
2023-02-21T01:14:44.770Z,1.17
2023-02-21T01:17:31.776Z,1.20
2023-02-21T01:20:19.345Z,1.27
2023-02-21T01:23:05.793Z,1.20
2023-02-21T01:25:51.119Z,1.40
2023-02-21T01:28:36.520Z,1.30
2023-02-21T01:31:21.795Z,1.50
2023-02-21T01:34:08.537Z,1.60
2023-02-21T01:36:53.963Z,1.60
2023-02-21T01:39:39.324Z,1.50
2023-02-21T01:42:24.908Z,1.83
2023-02-21T01:45:50.239Z,1.43
2023-02-21T01:48:38.022Z,1.20
2023-02-21T01:51:26.055Z,1.27
2023-02-21T01:54:12.478Z,1.10
2023-02-21T01:56:58.500Z,1.67
2023-02-21T01:59:44.734Z,1.67
2023-02-21T02:02:32.518Z,1.73
2023-02-21T02:05:19.009Z,1.33
2023-02-21T02:08:05.799Z,1.33
2023-02-21T02:10:51.334Z,1.70
2023-02-21T02:13:43.065Z,1.27
2023-02-21T02:16:16.530Z,1.30
2023-02-21T02:18:56.019Z,1.43
2023-02-21T02:21:49.065Z,1.47
2023-02-21T02:24:33.473Z,1.70
2023-02-21T02:27:29.637Z,1.60
2023-02-21T02:30:36.703Z,1.70
2023-02-21T02:33:41.892Z,1.40
2023-02-21T02:36:13.628Z,1.33
2023-02-21T02:38:48.895Z,1.50
2023-02-21T02:41:24.703Z,1.77
2023-02-21T02:43:55.564Z,1.20
2023-02-21T02:46:25.217Z,1.20
2023-02-21T02:48:58.233Z,1.23
2023-02-21T02:51:28.226Z,1.33
2023-02-21T02:53:56.157Z,1.50
2023-02-21T02:56:26.765Z,1.20
2023-02-21T02:58:56.804Z,1.30
2023-02-21T03:01:55.463Z,1.23
2023-02-21T03:04:45.778Z,1.10
2023-02-21T03:07:19.787Z,1.27
2023-02-21T03:09:56.309Z,0.87
2023-02-21T03:12:34.235Z,0.80
2023-02-21T03:15:05.685Z,0.90
2023-02-21T03:17:38.259Z,1.00
2023-02-21T03:20:07.137Z,0.90
2023-02-21T03:22:36.929Z,0.80
2023-02-21T03:25:06.035Z,0.80
2023-02-21T03:27:35.004Z,0.83
2023-02-21T03:30:05.438Z,0.83
2023-02-21T03:32:35.051Z,1.00
2023-02-21T03:35:03.019Z,0.57
2023-02-21T03:37:32.752Z,1.03
2023-02-21T03:40:02.599Z,0.90
2023-02-21T03:42:30.502Z,0.67
2023-02-21T03:44:58.449Z,0.80
2023-02-21T03:47:26.378Z,0.80
2023-02-21T03:49:54.292Z,0.80
2023-02-21T03:52:22.213Z,0.80
2023-02-21T03:54:50.145Z,1.00
2023-02-21T03:57:19.444Z,0.70
2023-02-21T03:59:47.449Z,1.20
2023-02-21T04:02:15.575Z,0.50
2023-02-21T04:04:43.632Z,0.67
2023-02-21T04:07:12.040Z,0.60
2023-02-21T04:09:39.966Z,0.63
2023-02-21T04:12:08.024Z,0.70
2023-02-21T04:14:37.638Z,0.60
2023-02-21T04:17:05.857Z,0.67
2023-02-21T04:19:33.781Z,0.60
2023-02-21T04:22:01.709Z,0.60
2023-02-21T04:24:29.798Z,0.50
2023-02-21T04:26:58.730Z,0.53
2023-02-21T04:29:26.746Z,0.70
2023-02-21T04:31:56.215Z,0.70
2023-02-21T04:34:24.198Z,0.50
2023-02-21T04:36:52.098Z,0.57
2023-02-21T04:39:20.041Z,0.60
2023-02-21T04:41:47.952Z,0.57
2023-02-21T04:44:17.537Z,0.53
2023-02-21T04:46:45.454Z,0.47
2023-02-21T04:49:15.388Z,0.60
2023-02-21T04:51:43.458Z,0.50
2023-02-21T04:54:13.863Z,0.60
2023-02-21T04:56:41.998Z,0.50
2023-02-21T04:59:09.897Z,0.50
2023-02-21T05:01:37.845Z,0.50
2023-02-21T05:04:06.217Z,0.70
2023-02-21T05:06:35.735Z,0.83
2023-02-21T05:09:04.053Z,0.90
2023-02-21T05:11:35.797Z,0.40
2023-02-21T05:14:03.960Z,0.43
2023-02-21T05:16:31.864Z,0.73
2023-02-21T05:18:59.876Z,0.60
2023-02-21T05:21:27.780Z,0.87
2023-02-21T05:23:57.042Z,0.73
2023-02-21T05:26:27.528Z,0.80
2023-02-21T05:28:55.515Z,0.80
2023-02-21T05:31:23.480Z,0.83
2023-02-21T05:33:51.456Z,0.70
2023-02-21T05:36:19.528Z,1.00
2023-02-21T05:38:48.199Z,0.90
2023-02-21T05:41:18.178Z,1.10
2023-02-21T05:43:46.670Z,1.20
2023-02-21T05:46:23.226Z,1.23
2023-02-21T05:48:51.210Z,1.40
2023-02-21T05:51:19.439Z,0.90
2023-02-21T05:53:47.485Z,1.40
2023-02-21T05:56:17.202Z,1.43
2023-02-21T05:58:45.092Z,1.30
2023-02-21T06:01:13.321Z,1.80
2023-02-21T06:03:41.438Z,1.10
2023-02-21T06:06:09.374Z,1.20
2023-02-21T06:08:43.987Z,1.90
2023-02-21T06:11:12.277Z,1.60
2023-02-21T06:13:41.760Z,1.37
2023-02-21T06:16:09.728Z,1.40
2023-02-21T06:18:37.711Z,1.60
2023-02-21T06:21:05.809Z,1.80
2023-02-21T06:23:33.690Z,1.80
2023-02-21T06:26:01.668Z,1.87
2023-02-21T06:28:30.548Z,1.60
2023-02-21T06:30:59.988Z,1.70
2023-02-21T06:33:27.978Z,1.60
2023-02-21T06:35:55.944Z,1.60
2023-02-21T06:38:24.015Z,2.20
2023-02-21T06:40:52.244Z,1.70
2023-02-21T06:43:20.178Z,2.27
2023-02-21T06:45:48.097Z,2.00
2023-02-21T06:48:17.732Z,2.53
2023-02-21T06:50:45.835Z,2.40
2023-02-21T06:53:13.781Z,2.10
2023-02-21T06:55:41.723Z,2.47
2023-02-21T06:58:10.829Z,2.73
2023-02-21T07:00:38.821Z,2.53
2023-02-21T07:03:07.059Z,2.30
2023-02-21T07:05:38.593Z,2.77
2023-02-21T07:08:06.914Z,3.10
2023-02-21T07:10:34.975Z,2.03
2023-02-21T07:13:02.885Z,3.10
2023-02-21T07:15:30.781Z,2.80
2023-02-21T07:17:58.705Z,2.40
2023-02-21T07:20:27.523Z,2.47
2023-02-21T07:22:56.833Z,2.27
2023-02-21T07:25:25.040Z,2.70
2023-02-21T07:27:53.884Z,3.03
2023-02-21T07:30:22.068Z,2.77
2023-02-21T07:32:50.118Z,2.60
2023-02-21T07:35:18.198Z,2.40
2023-02-21T07:37:46.101Z,2.63
2023-02-21T07:40:15.470Z,3.20
2023-02-21T07:42:44.778Z,3.00
2023-02-21T07:45:13.397Z,2.90
2023-02-21T07:47:41.592Z,2.70
2023-02-21T07:50:09.969Z,3.93
2023-02-21T07:52:38.016Z,3.90
2023-02-21T07:55:06.549Z,3.00
2023-02-21T07:57:35.919Z,2.13
2023-02-21T08:00:04.668Z,2.50
2023-02-21T08:02:32.764Z,2.07
2023-02-21T08:05:01.132Z,2.17
2023-02-21T08:07:29.132Z,1.80
2023-02-21T08:09:57.060Z,2.40
2023-02-21T08:12:24.945Z,1.93
2023-02-21T08:14:54.216Z,2.30
2023-02-21T08:17:22.232Z,1.50
2023-02-21T08:19:50.216Z,1.97
2023-02-21T08:22:18.132Z,2.07
2023-02-21T08:24:46.231Z,3.07
2023-02-21T08:27:14.396Z,3.57
2023-02-21T08:29:42.292Z,3.27
2023-02-21T08:32:11.941Z,2.40
2023-02-21T08:34:39.846Z,2.30
2023-02-21T08:37:14.703Z,2.30
2023-02-21T08:39:46.094Z,5.37
2023-02-21T08:42:14.265Z,3.17
2023-02-21T08:44:44.865Z,6.00
2023-02-21T08:47:14.825Z,5.00
2023-02-21T08:49:45.110Z,4.73
2023-02-21T08:52:12.991Z,5.50
2023-02-21T08:54:41.096Z,4.17
2023-02-21T08:57:08.989Z,4.73
2023-02-21T08:59:38.698Z,5.23
2023-02-21T09:02:18.050Z,5.00
2023-02-21T09:04:46.468Z,4.13
2023-02-21T09:07:15.034Z,4.10
2023-02-21T09:09:42.970Z,5.00
2023-02-21T09:12:11.056Z,3.83
2023-02-21T09:14:40.166Z,2.40
2023-02-21T09:17:09.864Z,3.23
2023-02-21T09:19:39.320Z,4.10
2023-02-21T09:22:08.360Z,3.57
2023-02-21T09:24:36.325Z,3.83
2023-02-21T09:27:04.296Z,2.60
2023-02-21T09:29:45.091Z,2.67
2023-02-21T09:32:14.850Z,4.60
2023-02-21T09:34:44.734Z,2.97
2023-02-21T09:37:12.656Z,3.00
2023-02-21T09:39:40.585Z,4.83
2023-02-21T09:42:08.669Z,4.77
2023-02-21T09:44:36.820Z,5.90
2023-02-21T09:47:06.825Z,3.23
2023-02-21T09:49:37.014Z,4.23
2023-02-21T09:52:07.101Z,3.87
2023-02-21T09:54:36.994Z,9.73
2023-02-21T09:57:10.888Z,3.27
2023-02-21T09:59:38.811Z,3.37
2023-02-21T10:02:26.007Z,4.03
2023-02-21T10:05:00.798Z,3.70
2023-02-21T10:07:37.148Z,3.40
2023-02-21T10:10:09.318Z,3.57
2023-02-21T10:12:41.234Z,2.47
2023-02-21T10:15:35.695Z,2.50
2023-02-21T10:18:08.080Z,2.87
2023-02-21T10:20:40.006Z,1.80
2023-02-21T10:23:16.494Z,2.50
2023-02-21T10:25:45.867Z,2.40
2023-02-21T10:28:19.229Z,3.80
2023-02-21T10:30:48.395Z,2.23
2023-02-21T10:33:16.424Z,2.00
2023-02-21T10:35:44.369Z,1.67
2023-02-21T10:38:18.191Z,2.20
2023-02-21T10:40:48.400Z,2.33
2023-02-21T10:43:19.325Z,2.00
2023-02-21T10:45:52.368Z,1.60
2023-02-21T10:48:21.652Z,1.33
2023-02-21T10:50:54.508Z,1.63
2023-02-21T10:53:28.478Z,1.80
2023-02-21T10:56:24.725Z,2.17
2023-02-21T10:58:54.994Z,1.73
2023-02-21T11:01:32.622Z,1.70
2023-02-21T11:04:02.247Z,1.33
2023-02-21T11:06:35.170Z,1.27
2023-02-21T11:09:25.860Z,3.90
2023-02-21T11:12:02.008Z,1.00
2023-02-21T11:14:30.424Z,1.03
2023-02-21T11:17:18.904Z,1.30
2023-02-21T11:19:49.820Z,1.40
2023-02-21T11:22:20.017Z,1.30
2023-02-21T11:24:53.345Z,1.90
2023-02-21T11:27:21.456Z,1.70
2023-02-21T11:29:51.525Z,0.70
2023-02-21T11:32:26.376Z,1.30
2023-02-21T11:35:02.505Z,4.60
2023-02-21T11:37:32.414Z,1.50
2023-02-21T11:40:08.693Z,1.30
2023-02-21T11:42:36.619Z,1.10
2023-02-21T11:45:12.050Z,1.67
2023-02-21T11:47:45.814Z,1.30
2023-02-21T11:50:17.533Z,1.60
2023-02-21T11:52:48.368Z,1.27
2023-02-21T11:55:21.640Z,1.30
2023-02-21T11:57:56.725Z,1.60
2023-02-21T12:00:31.085Z,2.27
2023-02-21T12:03:24.622Z,3.00
2023-02-21T12:06:00.312Z,3.30
2023-02-21T12:08:38.716Z,2.40
2023-02-21T12:11:30.269Z,3.83
2023-02-21T12:14:22.955Z,2.40
2023-02-21T12:16:58.072Z,3.57
2023-02-21T12:19:48.471Z,2.83
2023-02-21T12:22:24.389Z,1.40
2023-02-21T12:25:01.331Z,1.60
2023-02-21T12:27:37.650Z,2.00
2023-02-21T12:30:18.808Z,2.47
2023-02-21T12:32:52.247Z,4.43
2023-02-21T12:35:49.334Z,2.27
2023-02-21T12:38:25.159Z,1.87
2023-02-21T12:41:00.457Z,2.00
2023-02-21T12:43:43.644Z,1.90
2023-02-21T12:46:17.018Z,1.03
2023-02-21T12:48:52.381Z,1.20
2023-02-21T12:51:22.581Z,1.67
2023-02-21T12:53:54.852Z,0.80
2023-02-21T12:56:26.484Z,2.00
2023-02-21T12:59:00.727Z,1.50
2023-02-21T13:01:32.312Z,1.30
2023-02-21T13:04:09.853Z,0.53
2023-02-21T13:06:39.905Z,0.83
2023-02-21T13:09:18.365Z,1.17
2023-02-21T13:11:52.042Z,0.73
2023-02-21T13:14:26.027Z,0.67
2023-02-21T13:16:54.213Z,1.70
2023-02-21T13:19:22.814Z,1.10
2023-02-21T13:22:02.124Z,0.43
2023-02-21T13:24:47.510Z,0.63
2023-02-21T13:27:46.067Z,1.27
2023-02-21T13:30:26.328Z,0.60
2023-02-21T13:32:56.286Z,0.73
2023-02-21T13:35:30.892Z,0.60
2023-02-21T13:38:00.033Z,0.67
2023-02-21T13:40:35.551Z,1.00
2023-02-21T13:43:07.674Z,1.23
2023-02-21T13:45:36.948Z,1.00
2023-02-21T13:48:24.175Z,0.83
2023-02-21T13:50:53.036Z,0.77
2023-02-21T13:53:22.508Z,0.93
2023-02-21T13:56:26.930Z,0.80
2023-02-21T13:59:33.123Z,1.10
2023-02-21T14:02:19.248Z,0.70
2023-02-21T14:05:06.561Z,0.90
2023-02-21T14:07:46.135Z,0.80
2023-02-21T14:10:24.378Z,0.90
2023-02-21T14:12:56.062Z,0.60
2023-02-21T14:15:24.079Z,0.90
2023-02-21T14:17:54.760Z,0.90
2023-02-21T14:20:24.351Z,1.10
2023-02-21T14:22:54.104Z,0.80
2023-02-21T14:25:25.910Z,0.73
2023-02-21T14:27:54.120Z,0.77
2023-02-21T14:30:31.815Z,0.67
2023-02-21T14:33:10.274Z,1.00
2023-02-21T14:35:46.834Z,1.00
2023-02-21T14:38:19.309Z,1.00
2023-02-21T14:40:55.606Z,1.83
2023-02-21T14:43:41.615Z,1.10
2023-02-21T14:46:51.010Z,1.20
2023-02-21T14:49:58.581Z,0.80
2023-02-21T14:53:08.172Z,1.00
2023-02-21T14:56:18.482Z,0.90
2023-02-21T14:59:11.820Z,0.97
2023-02-21T15:01:46.911Z,0.70
2023-02-21T15:04:21.846Z,0.80
2023-02-21T15:06:58.987Z,0.80
2023-02-21T15:09:26.904Z,1.00
2023-02-21T15:11:56.629Z,0.87
2023-02-21T15:14:27.488Z,0.90
2023-02-21T15:16:56.828Z,0.90
2023-02-21T15:19:29.066Z,0.93
2023-02-21T15:22:17.748Z,1.00
2023-02-21T15:25:16.158Z,1.00
2023-02-21T15:28:12.466Z,1.33
2023-02-21T15:30:42.691Z,1.10
2023-02-21T15:33:16.949Z,1.00
2023-02-21T15:35:48.515Z,1.40
2023-02-21T15:38:20.407Z,1.33
2023-02-21T15:40:49.123Z,1.50
2023-02-21T15:43:28.847Z,1.40
2023-02-21T15:46:00.276Z,1.37
2023-02-21T15:48:28.349Z,1.67
2023-02-21T15:50:56.328Z,1.93
2023-02-21T15:53:26.160Z,1.33
2023-02-21T15:55:54.432Z,1.87
2023-02-21T15:58:24.835Z,2.37
2023-02-21T16:01:08.064Z,1.57
2023-02-21T16:03:38.392Z,1.80
2023-02-21T16:06:21.605Z,1.80
2023-02-21T16:08:58.906Z,2.47
2023-02-21T16:11:39.341Z,1.97
2023-02-21T16:14:07.884Z,2.33
2023-02-21T16:16:37.275Z,3.73
2023-02-21T16:19:05.218Z,3.33
2023-02-21T16:21:33.125Z,2.20
2023-02-21T16:24:28.445Z,2.93
2023-02-21T16:27:07.885Z,2.43
2023-02-21T16:29:35.810Z,1.67
2023-02-21T16:32:05.484Z,1.93
2023-02-21T16:34:36.240Z,3.63
2023-02-21T16:37:06.158Z,2.30
2023-02-21T16:39:34.116Z,4.80
2023-02-21T16:42:02.001Z,2.00
2023-02-21T16:44:30.138Z,2.50
2023-02-21T16:46:58.058Z,2.17
2023-02-21T16:49:27.558Z,2.00
2023-02-21T16:51:55.432Z,2.07
2023-02-21T16:54:23.622Z,2.00
2023-02-21T16:56:53.567Z,2.00
2023-02-21T16:59:22.985Z,2.00
2023-02-21T17:01:51.062Z,2.10
2023-02-21T17:04:21.253Z,1.97
2023-02-21T17:06:54.000Z,2.13
2023-02-21T17:09:23.477Z,2.67
2023-02-21T17:11:51.527Z,2.10
2023-02-21T17:14:19.616Z,2.40
2023-02-21T17:16:47.820Z,4.40
2023-02-21T17:19:17.519Z,2.90
2023-02-21T17:21:45.956Z,3.00
2023-02-21T17:24:16.450Z,2.20
2023-02-21T17:26:44.634Z,2.60
2023-02-21T17:29:12.788Z,3.13
2023-02-21T17:31:40.710Z,10.10
2023-02-21T17:34:08.888Z,2.60
2023-02-21T17:36:36.811Z,3.40
2023-02-21T17:39:06.065Z,2.60
2023-02-21T17:41:35.372Z,2.57
2023-02-21T17:44:03.287Z,2.80
2023-02-21T17:46:32.177Z,2.87
2023-02-21T17:49:00.131Z,3.10
2023-02-21T17:51:28.066Z,2.50
2023-02-21T17:53:56.649Z,2.70
2023-02-21T17:56:25.721Z,2.57
2023-02-21T17:58:55.689Z,2.67
2023-02-21T18:01:23.698Z,2.43
2023-02-21T18:03:51.798Z,2.40
2023-02-21T18:06:19.715Z,2.30
2023-02-21T18:08:47.632Z,2.67
2023-02-21T18:11:17.579Z,2.83
2023-02-21T18:13:46.180Z,2.30
2023-02-21T18:16:16.065Z,2.43
2023-02-21T18:18:45.219Z,2.80
2023-02-21T18:21:13.508Z,2.67
2023-02-21T18:23:44.332Z,2.10
2023-02-21T18:26:12.962Z,3.03
2023-02-21T18:28:41.052Z,2.50
2023-02-21T18:31:11.007Z,2.70
2023-02-21T18:33:40.481Z,3.17
2023-02-21T18:36:09.874Z,2.63
2023-02-21T18:38:40.227Z,3.43
2023-02-21T18:41:11.695Z,2.90
2023-02-21T18:43:40.772Z,3.00
2023-02-21T18:46:10.983Z,2.93
2023-02-21T18:48:43.158Z,3.10
2023-02-21T18:51:11.685Z,2.73
2023-02-21T18:53:39.746Z,2.80
2023-02-21T18:56:10.588Z,3.87
2023-02-21T18:58:38.624Z,3.90
2023-02-21T19:01:07.469Z,3.83
2023-02-21T19:03:35.569Z,3.10
2023-02-21T19:06:06.317Z,4.10
2023-02-21T19:08:34.327Z,4.10
2023-02-21T19:11:02.268Z,3.90
2023-02-21T19:13:30.153Z,3.43
2023-02-21T19:15:59.988Z,4.70
2023-02-21T19:18:30.487Z,3.90
2023-02-21T19:21:04.538Z,4.53
2023-02-21T19:23:33.818Z,3.47
2023-02-21T19:26:01.748Z,4.63
2023-02-21T19:28:29.631Z,4.37
2023-02-21T19:30:57.604Z,3.57
2023-02-21T19:33:25.649Z,4.73
2023-02-21T19:35:53.577Z,5.13
2023-02-21T19:38:21.571Z,5.27
2023-02-21T19:40:50.877Z,4.63
2023-02-21T19:43:18.899Z,4.13
2023-02-21T19:45:46.840Z,3.27
2023-02-21T19:48:15.959Z,4.80
2023-02-21T19:50:43.936Z,4.70
2023-02-21T19:53:11.864Z,5.30
2023-02-21T19:55:39.755Z,4.40
2023-02-21T19:58:09.354Z,3.43
2023-02-21T20:00:39.941Z,3.00
2023-02-21T20:03:07.989Z,3.50
2023-02-21T20:05:36.204Z,3.27
2023-02-21T20:08:05.385Z,5.57
2023-02-21T20:10:33.353Z,5.30
2023-02-21T20:13:02.331Z,5.70
2023-02-21T20:15:31.645Z,5.23
2023-02-21T20:17:59.567Z,6.20
2023-02-21T20:20:27.488Z,6.50
2023-02-21T20:22:55.662Z,6.13
2023-02-21T20:25:23.583Z,6.27
2023-02-21T20:27:51.530Z,4.13
2023-02-21T20:30:19.629Z,3.80
2023-02-21T20:32:48.975Z,3.57
2023-02-21T20:35:16.980Z,3.20
2023-02-21T20:37:44.904Z,5.00
2023-02-21T20:40:15.394Z,4.23
2023-02-21T20:42:43.378Z,3.93
2023-02-21T20:45:11.638Z,3.87
2023-02-21T20:47:39.574Z,3.47
2023-02-21T20:50:09.720Z,7.00
2023-02-21T20:52:39.801Z,6.87
2023-02-21T20:55:09.486Z,6.90
2023-02-21T20:57:37.568Z,6.77
2023-02-21T21:00:09.501Z,5.83
2023-02-21T21:02:38.944Z,6.70
2023-02-21T21:05:13.725Z,6.07
2023-02-21T21:07:42.247Z,6.60
2023-02-21T21:10:14.467Z,7.57
2023-02-21T21:12:42.989Z,7.17
2023-02-21T21:15:11.343Z,5.67
2023-02-21T21:17:40.817Z,6.13
2023-02-21T21:20:14.522Z,7.87
2023-02-21T21:22:42.820Z,9.20
2023-02-21T21:25:11.288Z,8.43
2023-02-21T21:27:41.491Z,7.83
2023-02-21T21:30:11.031Z,8.13
2023-02-21T21:32:39.124Z,9.23
2023-02-21T21:35:09.308Z,9.43
2023-02-21T21:37:37.520Z,8.50
2023-02-21T21:40:16.190Z,8.13
2023-02-21T21:42:44.888Z,8.17
2023-02-21T21:45:18.591Z,5.10
2023-02-21T21:47:47.537Z,5.40
2023-02-21T21:50:18.716Z,5.20
2023-02-21T21:52:51.401Z,6.70
2023-02-21T21:55:21.573Z,5.03
2023-02-21T21:57:53.400Z,7.73
2023-02-21T22:00:23.728Z,8.50
2023-02-21T22:02:57.134Z,6.73
2023-02-21T22:05:27.292Z,4.80
2023-02-21T22:07:55.873Z,4.57
2023-02-21T22:10:25.369Z,5.70
2023-02-21T22:12:54.141Z,6.33
2023-02-21T22:15:24.087Z,7.53
2023-02-21T22:17:52.425Z,4.10
2023-02-21T22:20:21.856Z,4.17
2023-02-21T22:23:02.715Z,4.43
2023-02-21T22:25:32.110Z,3.87
2023-02-21T22:28:01.700Z,4.40
2023-02-21T22:30:29.595Z,4.03
2023-02-21T22:32:57.499Z,3.87
2023-02-21T22:35:28.534Z,4.33
2023-02-21T22:38:01.956Z,4.40
2023-02-21T22:40:31.060Z,4.30
2023-02-21T22:43:00.765Z,4.23
2023-02-21T22:45:33.208Z,4.07
2023-02-21T22:48:03.347Z,4.40
2023-02-21T22:50:36.665Z,4.00
2023-02-21T22:53:08.379Z,4.53
2023-02-21T22:55:38.083Z,4.37
2023-02-21T22:58:07.965Z,8.20
2023-02-21T23:00:36.613Z,4.83
2023-02-21T23:03:12.768Z,4.70
2023-02-21T23:05:49.607Z,7.80
2023-02-21T23:08:22.701Z,7.97
2023-02-21T23:10:51.667Z,4.93
2023-02-21T23:13:21.508Z,4.70
2023-02-21T23:15:49.627Z,5.03
2023-02-21T23:18:20.639Z,5.17
2023-02-21T23:20:52.764Z,4.87
2023-02-21T23:23:25.981Z,5.20
2023-02-21T23:25:56.603Z,5.60
2023-02-21T23:28:24.500Z,4.50
2023-02-21T23:30:52.388Z,5.23
2023-02-21T23:33:23.663Z,5.30
2023-02-21T23:35:52.825Z,5.77
2023-02-21T23:38:24.581Z,5.73
2023-02-21T23:40:56.543Z,4.90
2023-02-21T23:43:26.071Z,5.50
2023-02-21T23:45:54.287Z,5.53
2023-02-21T23:48:22.803Z,5.70
2023-02-21T23:50:51.082Z,5.60
2023-02-21T23:53:21.035Z,7.00
2023-02-21T23:55:50.960Z,6.30
2023-02-21T23:58:20.385Z,5.27
